createdAt,value
2018-05-08T00:00:18.539Z,46.06
2018-05-08T00:01:18.539Z,45.77
2018-05-08T00:02:18.542Z,45.68
2018-05-08T00:03:18.565Z,45.48
2018-05-08T00:04:18.628Z,45.68
2018-05-08T00:05:18.603Z,45.77
2018-05-08T00:06:18.605Z,46.15
2018-05-08T00:07:18.627Z,45.58
2018-05-08T00:08:18.630Z,45.68
2018-05-08T00:09:18.639Z,46.15
2018-05-08T00:10:18.675Z,45.68
2018-05-08T00:11:18.683Z,45.46
2018-05-08T00:12:18.673Z,45.65
2018-05-08T00:13:18.762Z,45.94
2018-05-08T00:14:18.736Z,46.14
2018-05-08T00:15:18.713Z,46.23
2018-05-08T00:16:18.737Z,46.42
2018-05-08T00:17:18.753Z,46.04
2018-05-08T00:18:18.768Z,46.23
2018-05-08T00:19:18.809Z,46.14
2018-05-08T00:20:18.786Z,46.23
2018-05-08T00:21:18.792Z,46.33
2018-05-08T00:22:18.827Z,46.33
2018-05-08T00:23:18.848Z,46.33
2018-05-08T00:24:18.855Z,46.42
2018-05-08T00:25:18.858Z,46.42
2018-05-08T00:26:18.861Z,46.33
2018-05-08T00:27:18.875Z,46.52
2018-05-08T00:28:18.902Z,46.62
2018-05-08T00:29:18.911Z,46.33
2018-05-08T00:30:18.917Z,46.42
2018-05-08T00:31:18.947Z,46.52
2018-05-08T00:32:18.949Z,46.71
2018-05-08T00:33:19.014Z,46.42
2018-05-08T00:34:18.998Z,46.33
2018-05-08T00:35:18.976Z,46.23
2018-05-08T00:36:18.984Z,46.62
2018-05-08T00:37:19.010Z,46.33
2018-05-08T00:38:19.029Z,46.52
2018-05-08T00:39:19.052Z,46.62
2018-05-08T00:40:19.046Z,46.23
2018-05-08T00:41:19.070Z,46.62
2018-05-08T00:42:19.070Z,46.31
2018-05-08T00:43:19.081Z,46.14
2018-05-08T00:44:19.116Z,46.33
2018-05-08T00:45:19.132Z,46.52
2018-05-08T00:46:19.117Z,46.40
2018-05-08T00:47:19.135Z,46.59
2018-05-08T00:48:19.156Z,46.40
2018-05-08T00:49:19.169Z,46.59
2018-05-08T00:50:19.176Z,46.78
2018-05-08T00:51:19.184Z,46.69
2018-05-08T00:52:19.231Z,47.08
2018-05-08T00:53:19.249Z,47.17
2018-05-08T00:54:19.220Z,47.36
2018-05-08T00:55:19.237Z,47.36
2018-05-08T00:56:19.259Z,47.17
2018-05-08T00:57:19.265Z,46.78
2018-05-08T00:58:19.284Z,46.95
2018-05-08T00:59:19.296Z,47.44
2018-05-08T01:00:19.305Z,47.24
2018-05-08T01:01:19.311Z,47.82
2018-05-08T01:02:19.334Z,47.53
2018-05-08T01:03:19.364Z,47.72
2018-05-08T01:04:19.353Z,47.46
2018-05-08T01:05:19.371Z,47.27
2018-05-08T01:06:19.392Z,47.24
2018-05-08T01:07:19.387Z,47.24
2018-05-08T01:08:19.438Z,47.24
2018-05-08T01:09:19.427Z,47.15
2018-05-08T01:10:19.436Z,47.72
2018-05-08T01:11:19.452Z,47.53
2018-05-08T01:12:19.462Z,47.53
2018-05-08T01:13:19.487Z,47.53
2018-05-08T01:14:19.477Z,47.63
2018-05-08T01:15:19.504Z,47.53
2018-05-08T01:16:19.499Z,47.72
2018-05-08T01:17:19.509Z,47.53
2018-05-08T01:18:19.546Z,48.02
2018-05-08T01:19:19.592Z,47.34
2018-05-08T01:20:19.554Z,47.82
2018-05-08T01:21:19.580Z,47.34
2018-05-08T01:22:19.596Z,47.24
2018-05-08T01:23:19.589Z,47.15
2018-05-08T01:24:19.623Z,47.24
2018-05-08T01:25:19.631Z,47.15
2018-05-08T01:26:19.623Z,47.34
2018-05-08T01:27:19.637Z,47.53
2018-05-08T01:28:19.744Z,47.92
2018-05-08T01:29:19.673Z,47.53
2018-05-08T01:30:19.688Z,47.82
2018-05-08T01:31:19.702Z,47.15
2018-05-08T01:32:19.719Z,47.15
2018-05-08T01:33:19.720Z,47.44
2018-05-08T01:34:19.729Z,47.34
2018-05-08T01:35:19.760Z,47.44
2018-05-08T01:36:19.766Z,47.05
2018-05-08T01:37:19.788Z,47.24
2018-05-08T01:38:19.790Z,47.63
2018-05-08T01:39:19.857Z,47.63
2018-05-08T01:40:19.814Z,47.24
2018-05-08T01:41:19.836Z,47.34
2018-05-08T01:42:19.831Z,47.24
2018-05-08T01:43:19.943Z,47.05
2018-05-08T01:44:19.858Z,47.92
2018-05-08T01:45:19.864Z,47.24
2018-05-08T01:46:19.914Z,47.24
2018-05-08T01:47:19.897Z,47.44
2018-05-08T01:48:19.907Z,47.34
2018-05-08T01:49:19.913Z,47.15
2018-05-08T01:50:19.937Z,47.72
2018-05-08T01:51:20.042Z,47.51
2018-05-08T01:52:19.978Z,47.99
2018-05-08T01:53:19.979Z,48.18
2018-05-08T01:54:19.980Z,47.80
2018-05-08T01:55:20.014Z,48.11
2018-05-08T01:56:20.045Z,47.80
2018-05-08T01:57:20.010Z,48.28
2018-05-08T01:58:20.039Z,48.47
2018-05-08T01:59:20.036Z,47.99
2018-05-08T02:00:20.057Z,48.28
2018-05-08T02:01:20.073Z,48.08
2018-05-08T02:02:20.078Z,48.47
2018-05-08T02:03:20.109Z,48.28
2018-05-08T02:04:20.124Z,48.08
2018-05-08T02:05:20.136Z,48.47
2018-05-08T02:06:20.128Z,48.47
2018-05-08T02:07:20.142Z,48.28
2018-05-08T02:08:20.147Z,48.28
2018-05-08T02:09:20.184Z,48.28
2018-05-08T02:10:20.197Z,48.47
2018-05-08T02:11:20.199Z,48.18
2018-05-08T02:12:20.229Z,48.47
2018-05-08T02:13:20.214Z,48.28
2018-05-08T02:14:20.231Z,48.47
2018-05-08T02:15:20.243Z,47.99
2018-05-08T02:16:20.250Z,48.57
2018-05-08T02:17:20.263Z,48.18
2018-05-08T02:18:20.282Z,47.80
2018-05-08T02:19:20.324Z,47.70
2018-05-08T02:20:20.381Z,47.70
2018-05-08T02:21:20.309Z,47.61
2018-05-08T02:22:20.338Z,47.51
2018-05-08T02:23:20.375Z,47.70
2018-05-08T02:24:20.406Z,47.80
2018-05-08T02:25:20.380Z,47.89
2018-05-08T02:26:20.432Z,47.41
2018-05-08T02:27:20.406Z,47.61
2018-05-08T02:28:20.417Z,47.51
2018-05-08T02:29:20.427Z,48.08
2018-05-08T02:30:20.429Z,47.80
2018-05-08T02:31:20.460Z,47.87
2018-05-08T02:32:20.468Z,48.07
2018-05-08T02:33:20.450Z,48.16
2018-05-08T02:34:20.595Z,48.35
2018-05-08T02:35:20.496Z,48.18
2018-05-08T02:36:20.500Z,48.08
2018-05-08T02:37:20.517Z,48.47
2018-05-08T02:38:20.568Z,48.28
2018-05-08T02:39:20.618Z,48.25
2018-05-08T02:40:20.845Z,48.25
2018-05-08T02:41:20.570Z,48.25
2018-05-08T02:42:20.571Z,48.35
2018-05-08T02:43:20.588Z,48.35
2018-05-08T02:44:20.630Z,48.35
2018-05-08T02:45:20.647Z,48.35
2018-05-08T02:46:20.609Z,48.25
2018-05-08T02:47:20.674Z,48.35
2018-05-08T02:48:20.653Z,48.35
2018-05-08T02:49:20.669Z,49.02
2018-05-08T02:50:20.663Z,48.45
2018-05-08T02:51:20.673Z,48.45
2018-05-08T02:52:20.752Z,48.74
2018-05-08T02:53:20.714Z,48.45
2018-05-08T02:54:20.733Z,48.45
2018-05-08T02:55:20.796Z,48.74
2018-05-08T02:56:20.741Z,48.25
2018-05-08T02:57:20.758Z,48.25
2018-05-08T02:58:20.769Z,48.35
2018-05-08T02:59:20.794Z,48.35
2018-05-08T03:00:20.838Z,48.35
2018-05-08T03:01:20.827Z,48.35
2018-05-08T03:02:20.838Z,48.45
2018-05-08T03:03:20.908Z,48.45
2018-05-08T03:04:20.829Z,48.35
2018-05-08T03:05:20.861Z,49.02
2018-05-08T03:06:20.919Z,49.12
2018-05-08T03:07:20.872Z,48.45
2018-05-08T03:08:20.949Z,48.45
2018-05-08T03:09:20.915Z,48.35
2018-05-08T03:10:20.906Z,48.45
2018-05-08T03:11:20.910Z,48.25
2018-05-08T03:12:20.952Z,48.81
2018-05-08T03:13:20.936Z,49.02
2018-05-08T03:14:20.990Z,49.02
2018-05-08T03:15:20.953Z,49.19
2018-05-08T03:16:20.987Z,49.10
2018-05-08T03:17:20.980Z,49.00
2018-05-08T03:18:21.023Z,48.81
2018-05-08T03:19:21.010Z,49.29
2018-05-08T03:20:21.024Z,48.83
2018-05-08T03:21:21.065Z,48.81
2018-05-08T03:22:21.068Z,49.00
2018-05-08T03:23:21.058Z,48.90
2018-05-08T03:24:21.080Z,48.90
2018-05-08T03:25:21.101Z,48.81
2018-05-08T03:26:21.088Z,49.19
2018-05-08T03:27:21.111Z,49.12
2018-05-08T03:28:21.113Z,49.00
2018-05-08T03:29:21.152Z,48.81
2018-05-08T03:30:21.167Z,49.00
2018-05-08T03:31:21.152Z,48.71
2018-05-08T03:32:21.166Z,49.19
2018-05-08T03:33:21.210Z,49.10
2018-05-08T03:34:21.194Z,48.90
2018-05-08T03:35:21.239Z,48.90
2018-05-08T03:36:21.204Z,48.81
2018-05-08T03:37:21.209Z,49.00
2018-05-08T03:38:21.243Z,49.10
2018-05-08T03:39:21.252Z,48.90
2018-05-08T03:40:21.268Z,49.29
2018-05-08T03:41:21.263Z,49.00
2018-05-08T03:42:21.270Z,49.48
2018-05-08T03:43:21.287Z,49.38
2018-05-08T03:44:21.336Z,49.10
2018-05-08T03:45:21.338Z,49.00
2018-05-08T03:46:21.315Z,49.29
2018-05-08T03:47:21.387Z,49.00
2018-05-08T03:48:21.362Z,49.10
2018-05-08T03:49:21.383Z,48.81
2018-05-08T03:50:21.498Z,49.00
2018-05-08T03:51:21.376Z,49.10
2018-05-08T03:52:21.397Z,48.90
2018-05-08T03:53:21.420Z,48.90
2018-05-08T03:54:21.427Z,49.19
2018-05-08T03:55:21.427Z,49.10
2018-05-08T03:56:21.435Z,49.10
2018-05-08T03:57:21.529Z,49.00
2018-05-08T03:58:21.464Z,49.29
2018-05-08T03:59:21.508Z,49.29
2018-05-08T04:00:21.492Z,49.29
2018-05-08T04:01:21.502Z,49.29
2018-05-08T04:02:21.548Z,49.29
2018-05-08T04:03:21.519Z,49.29
2018-05-08T04:04:21.550Z,49.38
2018-05-08T04:05:21.547Z,49.38
2018-05-08T04:06:21.599Z,49.19
2018-05-08T04:07:21.593Z,49.38
2018-05-08T04:08:21.637Z,49.19
2018-05-08T04:09:21.595Z,48.90
2018-05-08T04:10:21.605Z,49.29
2018-05-08T04:11:21.644Z,49.19
2018-05-08T04:12:21.647Z,49.07
2018-05-08T04:13:21.652Z,49.10
2018-05-08T04:14:21.647Z,49.07
2018-05-08T04:15:21.678Z,49.17
2018-05-08T04:16:21.665Z,49.29
2018-05-08T04:17:21.732Z,49.10
2018-05-08T04:18:21.687Z,48.88
2018-05-08T04:19:21.698Z,48.88
2018-05-08T04:20:21.716Z,49.17
2018-05-08T04:21:21.744Z,49.26
2018-05-08T04:22:21.753Z,49.38
2018-05-08T04:23:21.754Z,49.38
2018-05-08T04:24:21.771Z,49.29
2018-05-08T04:25:21.770Z,49.00
2018-05-08T04:26:21.788Z,49.19
2018-05-08T04:27:21.815Z,49.10
2018-05-08T04:28:21.823Z,49.00
2018-05-08T04:29:21.870Z,48.90
2018-05-08T04:30:21.862Z,49.00
2018-05-08T04:31:21.838Z,48.90
2018-05-08T04:32:21.837Z,48.90
2018-05-08T04:33:21.847Z,49.29
2018-05-08T04:34:21.953Z,49.29
2018-05-08T04:35:21.905Z,48.81
2018-05-08T04:36:21.923Z,48.81
2018-05-08T04:37:21.923Z,48.81
2018-05-08T04:38:21.921Z,48.81
2018-05-08T04:39:21.954Z,48.90
2018-05-08T04:40:21.944Z,49.00
2018-05-08T04:41:21.965Z,49.00
2018-05-08T04:42:21.981Z,49.00
2018-05-08T04:43:21.966Z,48.90
2018-05-08T04:44:21.977Z,48.81
2018-05-08T04:45:22.004Z,48.90
2018-05-08T04:46:22.014Z,49.00
2018-05-08T04:47:22.044Z,49.19
2018-05-08T04:48:22.049Z,49.19
2018-05-08T04:49:22.033Z,49.19
2018-05-08T04:50:22.068Z,48.71
2018-05-08T04:51:22.089Z,49.00
2018-05-08T04:52:22.109Z,49.00
2018-05-08T04:53:22.088Z,49.00
2018-05-08T04:54:22.090Z,49.00
2018-05-08T04:55:22.108Z,48.71
2018-05-08T04:56:22.193Z,48.81
2018-05-08T04:57:22.155Z,49.22
2018-05-08T04:58:22.155Z,49.02
2018-05-08T04:59:22.195Z,49.12
2018-05-08T05:00:22.211Z,48.74
2018-05-08T05:01:22.171Z,48.74
2018-05-08T05:02:22.191Z,49.22
2018-05-08T05:03:22.193Z,48.83
2018-05-08T05:04:22.230Z,49.19
2018-05-08T05:05:22.245Z,49.02
2018-05-08T05:06:22.257Z,49.12
2018-05-08T05:07:22.249Z,48.93
2018-05-08T05:08:22.257Z,49.22
2018-05-08T05:09:22.276Z,48.83
2018-05-08T05:10:22.280Z,48.83
2018-05-08T05:11:22.325Z,49.02
2018-05-08T05:12:22.349Z,48.83
2018-05-08T05:13:22.333Z,49.02
2018-05-08T05:14:22.335Z,49.02
2018-05-08T05:15:22.341Z,48.93
2018-05-08T05:16:22.358Z,49.02
2018-05-08T05:17:22.398Z,48.93
2018-05-08T05:18:22.419Z,49.02
2018-05-08T05:19:22.377Z,48.74
2018-05-08T05:20:22.422Z,48.45
2018-05-08T05:21:22.420Z,48.45
2018-05-08T05:22:22.425Z,48.45
2018-05-08T05:23:22.427Z,48.45
2018-05-08T05:24:22.478Z,48.54
2018-05-08T05:25:22.449Z,48.45
2018-05-08T05:26:22.480Z,48.38
2018-05-08T05:27:22.476Z,48.45
2018-05-08T05:28:22.497Z,48.38
2018-05-08T05:29:22.494Z,48.35
2018-05-08T05:30:22.509Z,48.47
2018-05-08T05:31:22.517Z,48.38
2018-05-08T05:32:22.525Z,48.38
2018-05-08T05:33:22.537Z,48.28
2018-05-08T05:34:22.577Z,48.38
2018-05-08T05:35:22.616Z,48.38
2018-05-08T05:36:22.574Z,48.57
2018-05-08T05:37:22.596Z,48.76
2018-05-08T05:38:22.655Z,48.38
2018-05-08T05:39:22.613Z,48.47
2018-05-08T05:40:22.624Z,48.28
2018-05-08T05:41:22.629Z,48.28
2018-05-08T05:42:22.644Z,48.47
2018-05-08T05:43:22.666Z,48.38
2018-05-08T05:44:22.687Z,48.47
2018-05-08T05:45:22.690Z,48.47
2018-05-08T05:46:22.698Z,48.38
2018-05-08T05:47:22.717Z,48.38
2018-05-08T05:48:22.782Z,48.28
2018-05-08T05:49:22.731Z,48.47
2018-05-08T05:50:22.741Z,48.66
2018-05-08T05:51:22.771Z,48.66
2018-05-08T05:52:22.788Z,48.47
2018-05-08T05:53:22.796Z,48.76
2018-05-08T05:54:22.804Z,48.76
2018-05-08T05:55:22.842Z,48.47
2018-05-08T05:56:22.811Z,48.38
2018-05-08T05:57:22.857Z,48.59
2018-05-08T05:58:22.850Z,48.66
2018-05-08T05:59:22.856Z,49.05
2018-05-08T06:00:22.883Z,48.76
2018-05-08T06:01:22.869Z,49.07
2018-05-08T06:02:22.883Z,48.97
2018-05-08T06:03:22.889Z,48.97
2018-05-08T06:04:22.899Z,48.97
2018-05-08T06:05:22.967Z,48.88
2018-05-08T06:06:23.005Z,48.79
2018-05-08T06:07:22.950Z,48.97
2018-05-08T06:08:22.972Z,49.17
2018-05-08T06:09:22.962Z,49.07
2018-05-08T06:10:23.011Z,48.88
2018-05-08T06:11:23.020Z,49.07
2018-05-08T06:12:23.003Z,49.17
2018-05-08T06:13:23.029Z,49.17
2018-05-08T06:14:23.032Z,48.88
2018-05-08T06:15:23.047Z,49.36
2018-05-08T06:16:23.062Z,49.46
2018-05-08T06:17:23.056Z,49.27
2018-05-08T06:18:23.075Z,49.36
2018-05-08T06:19:23.089Z,49.07
2018-05-08T06:20:23.160Z,48.97
2018-05-08T06:21:23.123Z,49.36
2018-05-08T06:22:23.123Z,48.88
2018-05-08T06:23:23.134Z,48.79
2018-05-08T06:24:23.157Z,49.27
2018-05-08T06:25:23.161Z,48.33
2018-05-08T06:26:23.160Z,48.33
2018-05-08T06:27:23.187Z,48.30
2018-05-08T06:28:23.197Z,48.52
2018-05-08T06:29:23.206Z,48.33
2018-05-08T06:30:23.213Z,48.43
2018-05-08T06:31:23.258Z,48.13
2018-05-08T06:32:23.255Z,47.75
2018-05-08T06:33:23.259Z,47.75
2018-05-08T06:34:23.277Z,47.85
2018-05-08T06:35:23.290Z,47.94
2018-05-08T06:36:23.297Z,47.85
2018-05-08T06:37:23.301Z,47.75
2018-05-08T06:38:23.310Z,47.85
2018-05-08T06:39:23.399Z,47.94
2018-05-08T06:40:23.345Z,47.56
2018-05-08T06:41:23.355Z,47.56
2018-05-08T06:42:23.358Z,47.56
2018-05-08T06:43:23.371Z,47.85
2018-05-08T06:44:23.557Z,47.94
2018-05-08T06:45:23.407Z,47.17
2018-05-08T06:46:23.451Z,47.65
2018-05-08T06:47:23.451Z,47.19
2018-05-08T06:48:23.440Z,47.94
2018-05-08T06:49:23.447Z,47.77
2018-05-08T06:50:23.475Z,47.58
2018-05-08T06:51:23.457Z,47.58
2018-05-08T06:52:23.482Z,47.97
2018-05-08T06:53:23.518Z,47.29
2018-05-08T06:54:23.510Z,47.29
2018-05-08T06:55:23.510Z,47.00
2018-05-08T06:56:23.537Z,47.00
2018-05-08T06:57:23.543Z,47.10
2018-05-08T06:58:23.563Z,47.19
2018-05-08T06:59:23.560Z,47.00
2018-05-08T07:00:23.576Z,47.00
2018-05-08T07:01:23.615Z,46.91
2018-05-08T07:02:23.601Z,46.91
2018-05-08T07:03:23.617Z,46.93
2018-05-08T07:04:23.634Z,47.10
2018-05-08T07:05:23.649Z,47.49
2018-05-08T07:06:23.697Z,47.00
2018-05-08T07:07:23.689Z,47.03
2018-05-08T07:08:23.695Z,46.93
2018-05-08T07:09:23.714Z,46.93
2018-05-08T07:10:23.716Z,47.31
2018-05-08T07:11:23.725Z,46.83
2018-05-08T07:12:23.740Z,47.22
2018-05-08T07:13:23.751Z,46.83
2018-05-08T07:14:23.769Z,46.45
2018-05-08T07:15:23.774Z,46.83
2018-05-08T07:16:23.795Z,46.73
2018-05-08T07:17:23.795Z,46.73
2018-05-08T07:18:23.821Z,46.73
2018-05-08T07:19:23.906Z,46.93
2018-05-08T07:20:23.859Z,46.64
2018-05-08T07:21:23.909Z,46.93
2018-05-08T07:22:23.871Z,47.31
2018-05-08T07:23:23.880Z,46.55
2018-05-08T07:24:23.883Z,46.83
2018-05-08T07:25:23.925Z,46.73
2018-05-08T07:26:23.896Z,46.66
2018-05-08T07:27:23.948Z,47.44
2018-05-08T07:28:23.946Z,46.76
2018-05-08T07:29:23.957Z,46.66
2018-05-08T07:30:23.952Z,46.76
2018-05-08T07:31:24.007Z,46.95
2018-05-08T07:32:24.046Z,46.86
2018-05-08T07:33:23.992Z,47.24
2018-05-08T07:34:24.025Z,47.14
2018-05-08T07:35:24.011Z,46.76
2018-05-08T07:36:24.033Z,46.28
2018-05-08T07:37:24.036Z,46.47
2018-05-08T07:38:24.122Z,46.56
2018-05-08T07:39:24.091Z,46.78
2018-05-08T07:40:24.098Z,46.66
2018-05-08T07:41:24.107Z,46.28
2018-05-08T07:42:24.108Z,46.49
2018-05-08T07:43:24.147Z,46.20
2018-05-08T07:44:24.186Z,46.30
2018-05-08T07:45:24.175Z,46.49
2018-05-08T07:46:24.193Z,46.30
2018-05-08T07:47:24.170Z,46.69
2018-05-08T07:48:24.183Z,46.40
2018-05-08T07:49:24.210Z,46.69
2018-05-08T07:50:24.202Z,46.49
2018-05-08T07:51:24.232Z,46.30
2018-05-08T07:52:24.237Z,46.40
2018-05-08T07:53:24.246Z,46.59
2018-05-08T07:54:24.249Z,45.62
2018-05-08T07:55:24.293Z,45.82
2018-05-08T07:56:24.311Z,45.43
2018-05-08T07:57:24.347Z,45.53
2018-05-08T07:58:24.353Z,45.43
2018-05-08T07:59:24.373Z,45.65
2018-05-08T08:00:24.371Z,45.26
2018-05-08T08:01:24.386Z,45.26
2018-05-08T08:02:24.401Z,45.55
2018-05-08T08:03:24.437Z,45.36
2018-05-08T08:04:24.404Z,45.36
2018-05-08T08:05:24.405Z,45.36
2018-05-08T08:06:24.428Z,45.26
2018-05-08T08:07:24.493Z,45.17
2018-05-08T08:08:24.498Z,45.17
2018-05-08T08:09:24.462Z,45.36
2018-05-08T08:10:24.479Z,45.07
2018-05-08T08:11:24.481Z,44.97
2018-05-08T08:12:24.561Z,45.07
2018-05-08T08:13:24.502Z,45.17
2018-05-08T08:14:24.513Z,45.26
2018-05-08T08:16:24.584Z,44.87
2018-05-08T08:17:24.591Z,44.97
2018-05-08T08:18:24.708Z,45.09
2018-05-08T08:19:24.600Z,44.39
2018-05-08T08:21:24.617Z,44.42
2018-05-08T08:22:24.645Z,45.09
2018-05-08T08:23:24.636Z,44.51
2018-05-08T08:24:24.643Z,44.42
2018-05-08T08:25:24.671Z,44.42
2018-05-08T08:26:24.680Z,45.00
2018-05-08T08:28:24.712Z,45.09
2018-05-08T08:29:24.716Z,45.00
2018-05-08T08:30:24.809Z,44.60
2018-05-08T08:31:24.877Z,44.51
2018-05-08T08:32:24.845Z,44.34
2018-05-08T08:33:24.919Z,44.24
2018-05-08T08:35:24.828Z,43.45
2018-05-08T08:36:24.898Z,44.03
2018-05-08T08:37:24.923Z,43.95
2018-05-08T08:38:24.913Z,43.45
2018-05-08T08:39:24.939Z,44.43
2018-05-08T08:40:24.905Z,44.24
2018-05-08T08:41:24.982Z,44.43
2018-05-08T08:42:24.907Z,44.05
2018-05-08T08:43:24.955Z,43.47
2018-05-08T08:44:24.909Z,43.76
2018-05-08T08:45:24.926Z,43.95
2018-05-08T08:46:25.009Z,43.57
2018-05-08T08:48:24.978Z,43.76
2018-05-08T08:49:25.001Z,43.47
2018-05-08T08:50:25.032Z,43.47
2018-05-08T08:51:25.050Z,43.47
2018-05-08T08:52:25.054Z,42.99
2018-05-08T08:53:25.065Z,43.85
2018-05-08T08:54:25.058Z,43.47
2018-05-08T08:55:25.077Z,44.07
2018-05-08T08:56:25.072Z,43.78
2018-05-08T08:57:25.107Z,43.01
2018-05-08T08:58:25.113Z,43.28
2018-05-08T09:00:25.129Z,43.01
2018-05-08T09:01:25.159Z,43.78
2018-05-08T09:02:25.166Z,43.59
2018-05-08T09:03:25.191Z,43.78
2018-05-08T09:04:25.198Z,43.20
2018-05-08T09:05:25.246Z,42.72
2018-05-08T09:06:25.284Z,42.91
2018-05-08T09:07:25.259Z,42.91
2018-05-08T09:08:25.282Z,42.72
2018-05-08T09:09:25.263Z,43.01
2018-05-08T09:10:25.277Z,42.93
2018-05-08T09:11:25.289Z,42.91
2018-05-08T09:12:25.289Z,43.13
2018-05-08T09:13:25.482Z,43.13
2018-05-08T09:14:25.325Z,42.83
2018-05-08T09:15:25.375Z,42.83
2018-05-08T09:16:25.362Z,42.55
2018-05-08T09:17:25.495Z,42.45
2018-05-08T09:18:25.398Z,42.74
2018-05-08T09:19:25.448Z,42.35
2018-05-08T09:20:25.440Z,42.83
2018-05-08T09:21:25.423Z,42.55
2018-05-08T09:22:25.432Z,42.65
2018-05-08T09:23:25.450Z,42.74
2018-05-08T09:24:25.505Z,42.74
2018-05-08T09:25:25.489Z,42.45
2018-05-08T09:26:25.497Z,42.93
2018-05-08T09:27:25.564Z,42.83
2018-05-08T09:28:25.588Z,42.45
2018-05-08T09:29:25.575Z,42.76
2018-05-08T09:30:25.596Z,42.66
2018-05-08T09:31:25.557Z,42.66
2018-05-08T09:32:25.574Z,42.37
2018-05-08T09:33:25.601Z,42.08
2018-05-08T09:34:25.612Z,42.76
2018-05-08T09:35:25.628Z,42.08
2018-05-08T09:36:25.644Z,41.99
2018-05-08T09:37:25.646Z,42.28
2018-05-08T09:38:25.663Z,41.70
2018-05-08T09:39:25.823Z,42.28
2018-05-08T09:40:25.698Z,41.89
2018-05-08T09:41:25.733Z,41.91
2018-05-08T09:42:25.723Z,42.00
2018-05-08T09:43:25.789Z,41.70
2018-05-08T09:44:25.757Z,42.28
2018-05-08T09:45:25.763Z,42.00
2018-05-08T09:46:25.776Z,42.20
2018-05-08T09:47:25.802Z,42.10
2018-05-08T09:48:25.824Z,42.00
2018-05-08T09:49:25.827Z,42.30
2018-05-08T09:50:25.830Z,42.00
2018-05-08T09:51:25.840Z,42.00
2018-05-08T09:52:25.917Z,41.91
2018-05-08T09:53:25.886Z,41.62
2018-05-08T09:54:25.899Z,41.33
2018-05-08T09:55:25.918Z,41.91
2018-05-08T09:56:25.933Z,41.62
2018-05-08T09:57:25.952Z,41.91
2018-05-08T09:58:25.952Z,41.62
2018-05-08T09:59:25.959Z,41.42
2018-05-08T10:00:25.973Z,41.42
2018-05-08T10:01:26.021Z,41.14
2018-05-08T10:02:26.026Z,40.84
2018-05-08T10:03:26.028Z,41.04
2018-05-08T10:04:26.049Z,41.04
2018-05-08T10:05:26.134Z,41.62
2018-05-08T10:06:26.079Z,41.83
2018-05-08T10:07:26.102Z,40.96
2018-05-08T10:08:26.108Z,40.75
2018-05-08T10:09:26.141Z,40.86
2018-05-08T10:10:26.121Z,40.77
2018-05-08T10:11:26.175Z,40.67
2018-05-08T10:12:26.194Z,40.96
2018-05-08T10:13:26.155Z,40.77
2018-05-08T10:14:26.218Z,40.77
2018-05-08T10:15:26.194Z,40.86
2018-05-08T10:16:26.210Z,40.86
2018-05-08T10:17:26.231Z,40.19
2018-05-08T10:18:26.261Z,40.67
2018-05-08T10:19:26.268Z,40.67
2018-05-08T10:20:26.302Z,40.48
2018-05-08T10:21:26.318Z,40.86
2018-05-08T10:22:26.289Z,40.31
2018-05-08T10:23:26.316Z,40.50
2018-05-08T10:24:26.338Z,40.21
2018-05-08T10:25:26.348Z,40.40
2018-05-08T10:26:26.374Z,40.21
2018-05-08T10:27:26.382Z,40.11
2018-05-08T10:28:26.398Z,40.01
2018-05-08T10:29:26.416Z,39.62
2018-05-08T10:30:26.419Z,40.01
2018-05-08T10:31:26.429Z,39.72
2018-05-08T10:32:26.438Z,40.13
2018-05-08T10:33:26.454Z,40.23
2018-05-08T10:34:26.492Z,39.84
2018-05-08T10:35:26.506Z,39.55
2018-05-08T10:36:26.515Z,39.06
2018-05-08T10:37:26.511Z,39.06
2018-05-08T10:38:26.582Z,38.96
2018-05-08T10:39:26.547Z,39.18
2018-05-08T10:40:26.575Z,39.18
2018-05-08T10:41:26.606Z,38.79
2018-05-08T10:42:26.606Z,39.18
2018-05-08T10:43:27.356Z,38.79
2018-05-08T10:44:26.629Z,38.70
2018-05-08T10:45:26.629Z,38.81
2018-05-08T10:46:26.701Z,39.11
2018-05-08T10:47:26.683Z,38.91
2018-05-08T10:48:26.692Z,38.23
2018-05-08T10:49:26.693Z,38.13
2018-05-08T10:50:26.703Z,37.84
2018-05-08T10:51:26.737Z,38.73
2018-05-08T10:52:26.751Z,38.44
2018-05-08T10:53:26.753Z,37.76
2018-05-08T10:54:26.762Z,37.57
2018-05-08T10:55:26.795Z,37.37
2018-05-08T10:56:26.811Z,37.57
2018-05-08T10:57:26.843Z,37.66
2018-05-08T10:58:26.862Z,37.57
2018-05-08T10:59:26.874Z,37.68
2018-05-08T11:00:26.892Z,36.61
2018-05-08T11:01:26.885Z,36.81
2018-05-08T11:02:26.899Z,36.32
2018-05-08T11:03:26.913Z,36.54
2018-05-08T11:04:26.917Z,35.88
2018-05-08T11:05:26.976Z,36.08
2018-05-08T11:06:26.977Z,36.10
2018-05-08T11:07:27.039Z,35.44
2018-05-08T11:08:27.024Z,34.78
2018-05-08T11:09:27.053Z,34.40
2018-05-08T11:10:27.053Z,34.32
2018-05-08T11:11:27.157Z,34.24
2018-05-08T11:12:27.108Z,34.05
2018-05-08T11:13:27.083Z,33.58
2018-05-08T11:14:27.118Z,32.79
2018-05-08T11:15:27.137Z,32.81
2018-05-08T11:16:27.152Z,32.71
2018-05-08T11:17:27.197Z,32.04
2018-05-08T11:18:27.199Z,32.04
2018-05-08T11:19:27.210Z,32.07
2018-05-08T11:20:27.228Z,31.68
2018-05-08T11:21:27.244Z,31.10
2018-05-08T11:22:27.289Z,31.20
2018-05-08T11:23:27.306Z,30.90
2018-05-08T11:24:27.353Z,30.51
2018-05-08T11:25:27.344Z,30.41
2018-05-08T11:26:27.441Z,30.41
2018-05-08T11:27:27.379Z,30.32
2018-05-08T11:28:27.397Z,30.12
2018-05-08T11:29:27.429Z,30.12
2018-05-08T11:30:27.486Z,29.64
2018-05-08T11:31:27.497Z,29.35
2018-05-08T11:32:27.486Z,29.17
2018-05-08T11:33:27.567Z,29.17
2018-05-08T11:34:27.580Z,28.68
2018-05-08T11:35:27.576Z,28.39
2018-05-08T11:36:27.591Z,28.50
2018-05-08T11:37:27.646Z,28.30
2018-05-08T11:38:27.693Z,27.91
2018-05-08T11:39:27.670Z,28.39
2018-05-08T11:40:27.699Z,27.91
2018-05-08T11:41:27.704Z,28.19
2018-05-08T11:42:27.779Z,28.78
2018-05-08T11:43:27.800Z,28.30
2018-05-08T11:44:27.823Z,28.40
2018-05-08T11:45:27.835Z,27.91
2018-05-08T11:46:27.842Z,27.42
2018-05-08T11:47:27.876Z,27.62
2018-05-08T11:48:27.925Z,27.44
2018-05-08T11:49:27.930Z,26.73
2018-05-08T11:50:27.985Z,26.35
2018-05-08T11:51:28.033Z,26.35
2018-05-08T11:52:28.024Z,26.56
2018-05-08T11:53:28.050Z,26.68
2018-05-08T11:54:28.071Z,26.78
2018-05-08T11:55:28.106Z,26.20
2018-05-08T11:56:28.152Z,26.11
2018-05-08T11:57:28.157Z,25.54
2018-05-08T11:58:28.196Z,25.04
2018-05-08T11:59:28.244Z,24.96
2018-05-08T12:00:28.279Z,24.76
2018-05-08T12:01:28.293Z,24.48
2018-05-08T12:02:28.335Z,24.68
2018-05-08T12:03:28.362Z,24.49
2018-05-08T12:04:28.429Z,24.41
2018-05-08T12:05:28.437Z,24.40
2018-05-08T12:06:28.445Z,24.19
2018-05-08T12:07:28.498Z,23.90
2018-05-08T12:08:28.520Z,24.00
2018-05-08T12:09:28.556Z,23.11
2018-05-08T12:10:28.630Z,23.90
2018-05-08T12:11:28.624Z,23.31
2018-05-08T12:12:28.651Z,23.11
2018-05-08T12:13:28.676Z,22.61
2018-05-08T12:14:28.809Z,22.42
2018-05-08T12:15:28.761Z,22.24
2018-05-08T12:16:28.803Z,22.53
2018-05-08T12:17:28.821Z,22.83
2018-05-08T12:18:28.889Z,22.53
2018-05-08T12:19:28.898Z,22.73
2018-05-08T12:20:28.938Z,22.14
2018-05-08T12:21:28.973Z,22.44
2018-05-08T12:22:29.049Z,22.53
2018-05-08T12:23:29.075Z,21.55
2018-05-08T12:24:29.071Z,21.26
2018-05-08T12:25:29.151Z,21.97
2018-05-08T12:26:29.141Z,22.26
2018-05-08T12:27:29.191Z,21.57
2018-05-08T12:28:29.216Z,21.36
2018-05-08T12:29:29.270Z,21.36
2018-05-08T12:30:29.321Z,21.37
2018-05-08T12:31:29.576Z,21.39
2018-05-08T12:32:29.350Z,21.48
2018-05-08T12:33:29.391Z,21.39
2018-05-08T12:34:29.447Z,21.48
2018-05-08T12:35:29.572Z,21.59
2018-05-08T12:36:29.539Z,21.39
2018-05-08T12:37:29.597Z,21.50
2018-05-08T12:38:29.583Z,21.50
2018-05-08T12:39:29.605Z,21.21
2018-05-08T12:40:29.647Z,20.83
2018-05-08T12:41:29.714Z,20.62
2018-05-08T12:42:29.773Z,20.33
2018-05-08T12:43:29.795Z,20.23
2018-05-08T12:44:29.818Z,20.34
2018-05-08T12:45:29.888Z,19.93
2018-05-08T12:46:29.896Z,20.14
2018-05-08T12:47:29.949Z,19.93
2018-05-08T12:48:29.962Z,19.73
2018-05-08T12:49:29.972Z,20.14
2018-05-08T12:50:30.025Z,20.03
2018-05-08T12:51:30.061Z,20.03
2018-05-08T12:52:30.103Z,20.03
2018-05-08T12:53:30.133Z,20.04
2018-05-08T12:54:30.217Z,19.76
2018-05-08T12:55:30.209Z,19.56
2018-05-08T12:56:30.418Z,18.77
2018-05-08T12:57:30.335Z,18.88
2018-05-08T12:58:30.336Z,18.88